Flight Track Log - Related Links

Times and Time Zones

All times are in EDT time to prevent confusion due to time zone crossing. See the EGF3706 flight status page for this flight to view local times or setup timezone preferences in your user account.

Time Position Orientation Groundspeed Altitude Reporting Facility
EDT Latitude Longitude Course Direction KTS MPH feet Rate Location/Type
Sun 11:57:27 AM 42.0000 -87.9500 90° East 171 197 1,800  Level Chicago TRACON
Sun 11:58:27 AM 42.0500 -87.9333 14° North 263 303 3,700 1,700 Climbing Chicago TRACON
Sun 11:59:00 AM 42.0432 -87.4146 79° East  Level FlightAware Approximate
Sun 11:59:27 AM 42.1167 -87.8667 37° Northeast 284 327 5,200  Level Chicago TRACON
Sun 11:59:57 AM 42.1444 -87.8411 34° Northeast 279 321 6,300 2,543 Climbing Chicago Center
Sun 12:00:00 PM 42.0679 -87.2504 78° East  Level FlightAware Approximate
Sun 12:00:59 PM 42.1728 -87.7503 67° East 299 344 9,100  Level Chicago Center
Sun 12:01:00 PM 42.0939 -87.0865 77° East  Level FlightAware Approximate
Sun 12:02:00 PM 42.1167 -86.9223 90° East  Level FlightAware Approximate
Sun 12:02:01 PM 42.1439 -87.6436 110° East 306 352 11,900  Level Chicago Center
Sun 12:03:03 PM 42.1392 -87.5256 93° East 314 361 13,400 1,306 Climbing Chicago Center
Sun 12:04:05 PM 42.1286 -87.3550 95° East 376 433 14,600 1,161 Climbing Chicago Center
Sun 12:05:07 PM 42.1203 -87.1994 94° East 411 473 15,800 1,403 Climbing Chicago Center
Sun 12:06:09 PM 42.1131 -87.0422 93° East 421 484 17,500 1,597 Climbing Chicago Center
Sun 12:07:11 PM 42.1189 -86.8833 87° East 423 487 19,100 1,597 Climbing Chicago Center
Sun 12:08:13 PM 42.1242 -86.7258 87° East 424 488 20,800 1,403 Climbing Chicago Center
Sun 12:09:15 PM 42.1300 -86.5464 87° East 429 494 22,000 1,104 Climbing Chicago Center
Sun 12:10:18 PM 42.1361 -86.3806 87° East 441 507 23,100 1,008 Climbing Chicago Center
Sun 12:11:20 PM 42.1408 -86.2108 88° East 450 518 24,100 968 Climbing Chicago Center
Sun 12:12:22 PM 42.1436 -86.0386 89° East 459 528 25,100 1,016 Climbing Chicago Center
Sun 12:13:24 PM 42.1414 -85.8458 91° East 461 531 26,200 919 Climbing Chicago Center
Sun 12:14:26 PM 42.1400 -85.6711 91° East 468 539 27,000 387 Climbing Chicago Center
Sun 12:15:28 PM 42.1392 -85.4975 90° East 467 537 27,000  Level Chicago Center
Sun 12:16:30 PM 42.1367 -85.3222 91° East 471 542 27,000  Level Chicago Center
Sun 12:18:34 PM 42.1325 -84.9342 91° East 473 544 27,000  Level Chicago Center
Sun 12:19:36 PM 42.1394 -84.7575 87° East 474 545 27,000  Level Chicago Center
Sun 12:20:38 PM 42.1561 -84.5814 83° East 476 548 27,000  Level Chicago Center
Sun 12:21:40 PM 42.1708 -84.4047 84° East 477 549 27,000  Level Chicago Center
Sun 12:22:36 PM 42.1839 -84.2122 85° East 475 547 27,000  Level Cleveland Center
Sun 12:23:36 PM 42.1978 -84.0336 84° East 475 547 27,000  Level Cleveland Center
Sun 12:24:36 PM 42.2136 -83.8522 83° East 475 547 27,000  Level Cleveland Center
Sun 12:25:36 PM 42.2269 -83.6733 84° East 481 554 27,000  Level Cleveland Center
Sun 12:26:36 PM 42.2400 -83.4889 84° East 481 554 27,000  Level Cleveland Center
Sun 12:27:36 PM 42.2547 -83.3100 84° East 487 560 27,000  Level Cleveland Center
Sun 12:28:36 PM 42.2672 -83.1394 84° East 487 560 27,000  Level Cleveland Center
Sun 12:29:36 PM 42.2792 -82.9603 85° East 487 560 27,000  Level Cleveland Center
Sun 12:30:36 PM 42.2911 -82.7839 85° East 476 548 27,000  Level Cleveland Center
Sun 12:31:36 PM 42.3028 -82.6044 85° East 476 548 27,000  Level Cleveland Center
Sun 12:32:36 PM 42.3161 -82.4281 84° East 476 548 27,000  Level Cleveland Center
Sun 12:33:36 PM 42.3253 -82.2486 86° East 476 548 27,000 200 Level Cleveland Center
Sun 12:34:36 PM 42.3381 -82.0633 85° East 476 548 27,400 900 Climbing Cleveland Center
Sun 12:35:36 PM 42.3506 -81.8867 84° East 481 554 28,800 1,400 Climbing Cleveland Center
Sun 12:36:36 PM 42.3608 -81.7044 86° East 475 547 30,200 1,100 Climbing Cleveland Center
Sun 12:37:36 PM 42.3728 -81.5358 84° East 462 532 31,000 750 Climbing Cleveland Center
Sun 12:38:36 PM 42.3825 -81.3533 86° East 462 532 31,700 700 Climbing Cleveland Center
Sun 12:39:36 PM 42.3922 -81.1539 86° East 474 545 32,400 650 Climbing Cleveland Center
Sun 12:40:36 PM 42.4033 -80.9739 85° East 480 552 33,000 300 Climbing Cleveland Center
Sun 12:41:36 PM 42.4142 -80.7828 86° East 493 567 33,000 50 Level Cleveland Center
Sun 12:42:36 PM 42.4228 -80.5917 86° East 509 586 33,100 400 Climbing Cleveland Center
Sun 12:43:36 PM 42.4308 -80.3947 87° East 515 593 33,800 700 Climbing Cleveland Center
Sun 12:44:36 PM 42.4431 -80.2089 85° East 515 593 34,500 700 Climbing Cleveland Center
Sun 12:45:36 PM 42.4483 -80.0175 88° East 515 593 35,200 700 Climbing Cleveland Center
Sun 12:46:36 PM 42.4578 -79.8317 86° East 509 586 35,900 700 Climbing Cleveland Center
Sun 12:47:36 PM 42.4669 -79.6458 86° East 498 573 36,600 550 Climbing Cleveland Center
Sun 12:48:36 PM 42.4778 -79.4600 85° East 491 565 37,000 200 Climbing Cleveland Center
Sun 12:49:36 PM 42.4819 -79.2742 88° East 491 565 37,000  Level Cleveland Center
Sun 12:50:36 PM 42.4900 -79.0881 87° East 496 571 37,000  Level Cleveland Center
Sun 12:51:36 PM 42.4958 -78.8964 88° East 496 571 37,000  Level Cleveland Center
Sun 12:52:36 PM 42.5014 -78.7075 88° East 496 571 37,000  Level Cleveland Center
Sun 12:53:36 PM 42.5083 -78.5186 87° East 496 571 37,000  Level Cleveland Center
Sun 12:54:36 PM 42.5133 -78.3297 88° East 496 571 37,000 -100 Level Cleveland Center
Sun 12:55:36 PM 42.5178 -78.1381 88° East 501 577 36,800 -350 Descending Cleveland Center
Sun 12:56:36 PM 42.5219 -77.9461 88° East 501 577 36,300 -500 Descending Cleveland Center
Sun 12:57:36 PM 42.5281 -77.7742 87° East 502 578 35,800 -451 Descending Cleveland Center
Sun 12:59:29 PM 42.5367 -77.3833 88° East 519 597 35,000 -277 Descending Boston Center
Sun 01:00:29 PM 42.5406 -77.1919 88° East 513 590 35,000  Level Boston Center
Sun 01:01:29 PM 42.5444 -77.0006 88° East 513 590 35,000  Level Boston Center
Sun 01:02:29 PM 42.5475 -76.8119 89° East 508 585 35,000  Level Boston Center
Sun 01:03:29 PM 42.5508 -76.6175 89° East 508 585 35,000  Level Boston Center
Sun 01:04:29 PM 42.5533 -76.4289 89° East 508 585 35,000 -250 Level Boston Center
Sun 01:05:29 PM 42.5578 -76.2372 88° East 508 585 34,500 -650 Descending Boston Center
Sun 01:06:29 PM 42.5567 -76.0792 90° East 508 585 33,700 -1,000 Descending Boston Center
Sun 01:07:29 PM 42.5517 -75.8450 92° East 515 593 32,500 -1,000 Descending Boston Center
Sun 01:08:41 PM 42.5239 -75.6519 101° East 520 598 31,500 -1,000 Descending Boston Center
Sun 01:09:41 PM 42.4925 -75.4278 101° East 515 593 30,300 -1,636 Descending Boston Center
Sun 01:10:53 PM 42.4669 -75.1986 99° East 510 587 27,900 -2,250 Descending Boston Center
Sun 01:12:05 PM 42.4897 -75.0222 80° East 483 556 24,900 -2,727 Descending Boston Center
Sun 01:13:05 PM 42.5194 -74.8119 79° East 475 547 21,900 -2,750 Descending Boston Center
Sun 01:14:05 PM 42.5439 -74.6353 79° East 480 552 19,400 -1,950 Descending Boston Center
Sun 01:15:05 PM 42.5658 -74.4586 80° East 480 552 18,000 -700 Descending Boston Center
Sun 01:16:05 PM 42.5853 -74.3042 80° East 473 544 18,000  Level Boston Center
Sun 01:17:05 PM 42.6069 -74.1100 81° East 468 539 18,000  Level Boston Center
Sun 01:18:17 PM 42.6258 -73.9553 81° East 460 529 18,000  Level Boston Center
Sun 01:19:17 PM 42.6408 -73.7411 84° East 465 535 18,000  Level Boston Center
Sun 01:20:17 PM 42.6117 -73.5489 102° East 470 541 18,000  Level Boston Center
Sun 01:21:17 PM 42.5464 -73.4181 124° Southeast 459 528 18,000 -1,200 Level Boston Center
Sun 01:22:17 PM 42.4408 -73.3122 143° Southeast 446 513 15,600 -2,440 Descending Boston Center
Sun 01:22:48 PM 42.3933 -73.2667 145° Southeast 431 496 14,300 -2,596 Descending Boston Center
Sun 01:24:01 PM 42.2814 -73.1556 144° Southeast 408 470 11,100 -1,478 Descending Boston Center
Sun 01:25:02 PM 42.1986 -73.0456 135° Southeast 410 472 11,000 -397 Descending Boston Center
Sun 01:26:17 PM 42.1264 -72.9131 126° Southeast 385 443 10,200 -885 Descending Boston Center
Sun 01:27:04 PM 42.0789 -72.8233 125° Southeast 326 375 9,200 -1,486 Descending Boston Center
Sun 01:28:06 PM 42.0458 -72.7169 113° Southeast 305 351 7,500 -1,734 Descending Boston Center
Sun 01:29:12 PM 42.1083 -72.6331 45° Northeast 299 344 5,500 -1,748 Descending Boston Center
Sun 01:30:13 PM 42.1647 -72.5661 41° Northeast 266 306 3,800 -1,328 Descending Boston Center
Sun 01:31:14 PM 42.1294 -72.5100 130° Southeast 231 266 2,800 -984 Descending Boston Center

Login

Don't have an account? Register now (free) for customized features, flight alerts, and more!